createdAt,value
2018-10-17T00:00:10.715Z,20.20
2018-10-17T00:02:39.000Z,20.20
2018-10-17T00:05:08.168Z,20.20
2018-10-17T00:07:36.650Z,20.20
2018-10-17T00:10:06.074Z,20.10
2018-10-17T00:12:34.298Z,20.20
2018-10-17T00:15:02.659Z,20.10
2018-10-17T00:17:30.957Z,20.10
2018-10-17T00:19:59.279Z,20.10
2018-10-17T00:22:27.704Z,20.10
2018-10-17T00:24:56.000Z,20.10
2018-10-17T00:27:24.291Z,20.10
2018-10-17T00:29:52.619Z,20.00
2018-10-17T00:32:21.846Z,20.00
2018-10-17T00:34:50.250Z,20.00
2018-10-17T00:37:18.566Z,20.00
2018-10-17T00:39:46.873Z,20.00
2018-10-17T00:42:15.113Z,20.00
2018-10-17T00:44:43.388Z,20.00
2018-10-17T00:47:12.488Z,20.00
2018-10-17T00:49:40.864Z,20.00
2018-10-17T00:52:09.221Z,20.00
2018-10-17T00:54:37.496Z,20.00
2018-10-17T00:57:05.737Z,20.00
2018-10-17T00:59:34.034Z,20.10
2018-10-17T01:02:02.304Z,20.00
2018-10-17T01:04:30.686Z,20.00
2018-10-17T01:06:59.080Z,20.00
2018-10-17T01:09:28.842Z,20.00
2018-10-17T01:11:57.193Z,20.00
2018-10-17T01:14:25.430Z,20.00
2018-10-17T01:16:53.790Z,20.00
2018-10-17T01:19:22.053Z,19.90
2018-10-17T01:21:50.367Z,20.00
2018-10-17T01:24:18.638Z,20.00
2018-10-17T01:26:46.926Z,19.90
2018-10-17T01:29:15.243Z,20.00
2018-10-17T01:31:43.540Z,19.90
2018-10-17T01:34:11.794Z,19.90
2018-10-17T01:36:40.104Z,19.90
2018-10-17T01:39:09.619Z,19.80
2018-10-17T01:41:37.971Z,19.80
2018-10-17T01:44:07.003Z,19.80
2018-10-17T01:46:35.599Z,19.80
2018-10-17T01:49:04.127Z,19.80
2018-10-17T01:51:32.405Z,19.80
2018-10-17T01:54:00.700Z,19.80
2018-10-17T01:56:28.998Z,19.80
2018-10-17T01:58:57.336Z,19.70
2018-10-17T02:01:25.701Z,19.70
2018-10-17T02:03:53.996Z,19.70
2018-10-17T02:06:22.280Z,19.70
2018-10-17T02:08:50.590Z,19.70
2018-10-17T02:11:18.884Z,19.70
2018-10-17T02:13:47.151Z,19.70
2018-10-17T02:16:15.400Z,19.70
2018-10-17T02:18:43.677Z,19.60
2018-10-17T02:21:11.927Z,19.70
2018-10-17T02:23:40.191Z,19.60
2018-10-17T02:26:08.467Z,19.60
2018-10-17T02:28:36.756Z,19.60
2018-10-17T02:31:05.124Z,19.60
2018-10-17T02:33:33.359Z,19.60
2018-10-17T02:36:01.604Z,19.60
2018-10-17T02:38:29.878Z,19.60
2018-10-17T02:40:58.240Z,19.50
2018-10-17T02:43:26.470Z,19.60
2018-10-17T02:45:54.811Z,19.60
2018-10-17T02:48:23.079Z,19.50
2018-10-17T02:50:51.387Z,19.50
2018-10-17T02:53:19.656Z,19.50
2018-10-17T02:55:47.972Z,19.50
2018-10-17T02:58:16.263Z,19.50
2018-10-17T03:00:44.533Z,19.50
2018-10-17T03:03:12.856Z,19.50
2018-10-17T03:05:41.162Z,19.50
2018-10-17T03:08:09.459Z,19.50
2018-10-17T03:10:37.825Z,19.50
2018-10-17T03:13:06.213Z,19.50
2018-10-17T03:15:34.420Z,19.50
2018-10-17T03:18:02.720Z,19.50
2018-10-17T03:20:31.008Z,19.50
2018-10-17T03:22:59.675Z,19.50
2018-10-17T03:25:28.006Z,19.40
2018-10-17T03:27:56.340Z,19.40
2018-10-17T03:30:25.503Z,19.40
2018-10-17T03:32:54.373Z,19.40
2018-10-17T03:35:22.886Z,19.40
2018-10-17T03:37:51.159Z,19.40
2018-10-17T03:40:19.481Z,19.40
2018-10-17T03:42:48.214Z,19.40
2018-10-17T03:45:16.495Z,19.50
2018-10-17T03:47:44.798Z,19.40
2018-10-17T03:50:13.566Z,19.30
2018-10-17T03:52:42.180Z,19.30
2018-10-17T03:55:10.534Z,19.30
2018-10-17T03:57:38.410Z,19.30
2018-10-17T04:00:07.168Z,19.30
2018-10-17T04:02:35.468Z,19.30
2018-10-17T04:05:03.896Z,19.30
2018-10-17T04:07:32.127Z,19.30
2018-10-17T04:10:00.375Z,19.30
2018-10-17T04:12:28.632Z,19.30
2018-10-17T04:14:57.065Z,19.30
2018-10-17T04:17:25.728Z,19.30
2018-10-17T04:19:54.230Z,19.30
2018-10-17T04:22:22.615Z,19.30
2018-10-17T04:24:50.897Z,19.30
2018-10-17T04:27:19.145Z,19.40
2018-10-17T04:29:47.416Z,19.40
2018-10-17T04:32:15.696Z,19.40
2018-10-17T04:34:44.316Z,19.40
2018-10-17T04:37:14.015Z,19.40
2018-10-17T04:39:42.588Z,19.40
2018-10-17T04:42:11.301Z,19.40
2018-10-17T04:44:40.091Z,19.40
2018-10-17T04:47:08.823Z,19.40
2018-10-17T04:49:37.457Z,19.40
2018-10-17T04:52:05.900Z,19.40
2018-10-17T04:54:34.215Z,19.40
2018-10-17T04:57:02.679Z,19.40
2018-10-17T04:59:31.915Z,19.40
2018-10-17T05:02:00.197Z,19.40
2018-10-17T05:04:30.207Z,19.40
2018-10-17T05:06:58.916Z,19.40
2018-10-17T05:09:27.204Z,19.30
2018-10-17T05:11:56.398Z,19.30
2018-10-17T05:14:28.186Z,19.30
2018-10-17T05:16:56.487Z,19.30
2018-10-17T05:19:25.228Z,19.30
2018-10-17T05:21:53.528Z,19.30
2018-10-17T05:24:22.171Z,19.30
2018-10-17T05:26:50.866Z,19.30
2018-10-17T05:29:19.677Z,19.30
2018-10-17T05:31:48.227Z,19.30
2018-10-17T05:34:16.515Z,19.30
2018-10-17T05:36:45.199Z,19.30
2018-10-17T05:39:13.505Z,19.30
2018-10-17T05:41:41.819Z,19.40
2018-10-17T05:44:10.096Z,19.40
2018-10-17T05:46:38.448Z,19.40
2018-10-17T05:49:06.911Z,19.40
2018-10-17T05:51:35.560Z,19.40
2018-10-17T05:54:04.267Z,19.40
2018-10-17T05:56:32.947Z,19.40
2018-10-17T05:59:01.355Z,19.30
2018-10-17T06:01:29.970Z,19.30
2018-10-17T06:03:58.840Z,19.40
2018-10-17T06:06:27.191Z,19.40
2018-10-17T06:08:55.433Z,19.30
2018-10-17T06:11:28.589Z,19.30
2018-10-17T06:13:56.890Z,19.30
2018-10-17T06:16:25.620Z,19.30
2018-10-17T06:18:53.952Z,19.30
2018-10-17T06:21:22.237Z,19.30
2018-10-17T06:23:50.543Z,19.30
2018-10-17T06:26:18.988Z,19.30
2018-10-17T06:28:47.564Z,19.30
2018-10-17T06:31:15.904Z,19.30
2018-10-17T06:33:44.185Z,19.40
2018-10-17T06:36:12.784Z,19.40
2018-10-17T06:38:41.275Z,19.40
2018-10-17T06:41:09.939Z,19.50
2018-10-17T06:43:38.629Z,19.40
2018-10-17T06:46:06.821Z,19.40
2018-10-17T06:48:35.144Z,19.50
2018-10-17T06:51:03.547Z,19.40
2018-10-17T06:53:31.799Z,19.50
2018-10-17T06:56:00.567Z,19.50
2018-10-17T06:58:29.142Z,19.50
2018-10-17T07:00:57.450Z,19.50
2018-10-17T07:03:25.859Z,19.50
2018-10-17T07:05:54.391Z,19.50
2018-10-17T07:08:22.905Z,19.50
2018-10-17T07:10:51.301Z,19.50
2018-10-17T07:13:19.680Z,19.50
2018-10-17T07:15:48.471Z,19.50
2018-10-17T07:18:17.011Z,19.50
2018-10-17T07:20:45.615Z,19.50
2018-10-17T07:23:13.938Z,19.60
2018-10-17T07:25:42.176Z,19.60
2018-10-17T07:28:10.491Z,19.60
2018-10-17T07:30:38.779Z,19.70
2018-10-17T07:33:07.059Z,19.70
2018-10-17T07:35:35.466Z,19.80
2018-10-17T07:38:04.137Z,19.80
2018-10-17T07:40:33.278Z,19.90
2018-10-17T07:43:01.699Z,19.90
2018-10-17T07:45:30.239Z,19.90
2018-10-17T07:47:58.604Z,20.00
2018-10-17T07:50:30.990Z,20.00
2018-10-17T07:53:00.113Z,20.10
2018-10-17T07:55:28.584Z,20.10
2018-10-17T07:57:56.970Z,20.20
2018-10-17T08:00:25.463Z,20.20
2018-10-17T08:02:53.781Z,20.20
2018-10-17T08:05:22.204Z,20.20
2018-10-17T08:07:50.487Z,20.30
2018-10-17T08:10:18.825Z,20.30
2018-10-17T08:12:47.172Z,20.30
2018-10-17T08:15:15.493Z,20.40
2018-10-17T08:17:43.821Z,20.40
2018-10-17T08:20:12.904Z,20.40
2018-10-17T08:22:41.290Z,20.40
2018-10-17T08:25:12.048Z,20.40
2018-10-17T08:27:40.816Z,20.40
2018-10-17T08:30:10.189Z,20.50
2018-10-17T08:32:39.086Z,20.40
2018-10-17T08:35:07.538Z,20.40
2018-10-17T08:37:36.348Z,20.40
2018-10-17T08:40:04.903Z,20.50
2018-10-17T08:42:33.279Z,20.50
2018-10-17T08:45:01.717Z,20.50
2018-10-17T08:47:29.992Z,20.50
2018-10-17T08:49:58.319Z,20.50
2018-10-17T08:52:26.669Z,20.50
2018-10-17T08:54:54.974Z,20.60
2018-10-17T08:57:23.287Z,20.60
2018-10-17T08:59:51.671Z,20.60
2018-10-17T09:02:19.961Z,20.60
2018-10-17T09:04:48.264Z,20.60
2018-10-17T09:07:16.572Z,20.60
2018-10-17T09:09:44.932Z,20.70
2018-10-17T09:12:13.626Z,20.70
2018-10-17T09:15:05.288Z,20.70
2018-10-17T09:17:33.575Z,20.80
2018-10-17T09:20:02.215Z,20.90
2018-10-17T09:22:30.269Z,20.90
2018-10-17T09:24:58.551Z,21.00
2018-10-17T09:27:26.868Z,21.00
2018-10-17T09:29:55.167Z,21.00
2018-10-17T09:32:23.508Z,21.10
2018-10-17T09:34:51.890Z,21.10
2018-10-17T09:37:20.204Z,21.10
2018-10-17T09:39:48.616Z,21.20
2018-10-17T09:42:17.075Z,21.20
2018-10-17T09:44:45.391Z,21.40
2018-10-17T09:47:14.712Z,21.40
2018-10-17T09:49:43.135Z,21.40
2018-10-17T09:52:11.534Z,21.50
2018-10-17T09:54:39.976Z,21.50
2018-10-17T09:57:08.253Z,21.50
2018-10-17T09:59:36.533Z,21.60
2018-10-17T10:02:05.305Z,21.60
2018-10-17T10:04:33.548Z,21.60
2018-10-17T10:07:01.870Z,21.60
2018-10-17T10:09:31.535Z,21.60
2018-10-17T10:11:59.875Z,21.60
2018-10-17T10:15:01.204Z,21.70
2018-10-17T10:17:29.491Z,21.70
2018-10-17T10:19:57.896Z,21.80
2018-10-17T10:22:26.531Z,21.90
2018-10-17T10:24:54.922Z,22.10
2018-10-17T10:27:23.142Z,22.20
2018-10-17T10:29:51.547Z,22.20
2018-10-17T10:32:19.890Z,22.20
2018-10-17T10:34:48.239Z,22.20
2018-10-17T10:37:16.616Z,22.20
2018-10-17T10:39:44.924Z,22.20
2018-10-17T10:42:13.533Z,22.20
2018-10-17T10:44:41.855Z,22.10
2018-10-17T10:47:10.160Z,22.10
2018-10-17T10:49:38.512Z,22.10
2018-10-17T10:52:06.823Z,22.20
2018-10-17T10:54:35.142Z,22.40
2018-10-17T10:57:03.482Z,22.50
2018-10-17T10:59:32.426Z,22.50
2018-10-17T11:02:00.721Z,22.60
2018-10-17T11:04:30.273Z,22.60
2018-10-17T11:06:58.680Z,22.80
2018-10-17T11:09:26.975Z,22.90
2018-10-17T11:11:55.305Z,23.20
2018-10-17T11:14:43.713Z,23.50
2018-10-17T11:17:12.766Z,23.60
2018-10-17T11:19:41.120Z,23.70
2018-10-17T11:22:09.436Z,23.80
2018-10-17T11:24:37.723Z,23.80
2018-10-17T11:27:06.168Z,24.00
2018-10-17T11:29:34.498Z,24.00
2018-10-17T11:32:02.959Z,24.20
2018-10-17T11:34:32.313Z,24.30
2018-10-17T11:37:00.640Z,24.40
2018-10-17T11:39:30.222Z,24.40
2018-10-17T11:41:58.479Z,24.30
2018-10-17T11:44:26.791Z,24.30
2018-10-17T11:46:55.155Z,24.30
2018-10-17T11:49:23.467Z,24.20
2018-10-17T11:51:51.747Z,24.10
2018-10-17T11:54:20.188Z,24.10
2018-10-17T11:56:48.532Z,24.00
2018-10-17T11:59:16.969Z,24.00
2018-10-17T12:01:45.224Z,24.00
2018-10-17T12:04:13.712Z,24.00
2018-10-17T12:06:41.884Z,24.00
2018-10-17T12:09:10.361Z,24.00
2018-10-17T12:11:38.890Z,23.90
2018-10-17T12:14:07.271Z,23.90
2018-10-17T12:16:35.606Z,23.80
2018-10-17T12:19:04.028Z,23.70
2018-10-17T12:21:32.526Z,23.60
2018-10-17T12:24:00.873Z,23.50
2018-10-17T12:26:29.191Z,23.50
2018-10-17T12:28:57.648Z,23.40
2018-10-17T12:31:25.975Z,23.30
2018-10-17T12:33:54.317Z,23.30
2018-10-17T12:36:22.647Z,23.30
2018-10-17T12:38:51.061Z,23.30
2018-10-17T12:41:19.608Z,23.20
2018-10-17T12:43:48.040Z,23.20
2018-10-17T12:46:16.443Z,23.10
2018-10-17T12:48:44.952Z,23.10
2018-10-17T12:51:13.304Z,23.10
2018-10-17T12:53:41.807Z,23.10
2018-10-17T12:56:10.302Z,23.00
2018-10-17T12:58:39.036Z,23.00
2018-10-17T13:01:07.985Z,23.00
2018-10-17T13:03:36.780Z,23.00
2018-10-17T13:06:05.533Z,23.10
2018-10-17T13:08:34.526Z,23.00
2018-10-17T13:11:03.635Z,23.00
2018-10-17T13:13:32.732Z,22.90
2018-10-17T13:16:12.216Z,22.90
2018-10-17T13:18:41.287Z,22.90
2018-10-17T13:21:10.307Z,22.80
2018-10-17T13:23:39.403Z,22.80
2018-10-17T13:26:08.540Z,22.70
2018-10-17T13:28:37.632Z,22.70
2018-10-17T13:31:06.857Z,22.70
2018-10-17T13:33:35.868Z,22.70
2018-10-17T13:36:05.056Z,22.70
2018-10-17T13:38:34.104Z,22.70
2018-10-17T13:41:03.876Z,22.60
2018-10-17T13:43:33.515Z,22.70
2018-10-17T13:46:02.594Z,22.60
2018-10-17T13:48:31.606Z,22.70
2018-10-17T13:51:00.663Z,22.60
2018-10-17T13:53:29.613Z,22.60
2018-10-17T13:55:58.659Z,22.60
2018-10-17T13:58:28.422Z,22.60
2018-10-17T14:00:57.431Z,22.60
2018-10-17T14:03:26.775Z,22.60
2018-10-17T14:05:56.103Z,22.60
2018-10-17T14:08:24.774Z,22.60
2018-10-17T14:10:53.315Z,22.60
2018-10-17T14:13:22.175Z,22.60
2018-10-17T14:16:19.358Z,22.60
2018-10-17T14:18:47.695Z,22.50
2018-10-17T14:21:16.051Z,22.50
2018-10-17T14:23:44.317Z,22.50
2018-10-17T14:26:12.991Z,22.50
2018-10-17T14:28:41.316Z,22.50
2018-10-17T14:31:09.559Z,22.40
2018-10-17T14:33:37.852Z,22.40
2018-10-17T14:36:06.201Z,22.40
2018-10-17T14:38:34.696Z,22.40
2018-10-17T14:41:03.037Z,22.30
2018-10-17T14:43:31.473Z,22.30
2018-10-17T14:46:00.094Z,22.30
2018-10-17T14:48:28.610Z,22.20
2018-10-17T14:50:57.179Z,22.20
2018-10-17T14:53:26.028Z,22.10
2018-10-17T14:55:54.839Z,22.10
2018-10-17T14:58:23.763Z,22.10
2018-10-17T15:00:52.879Z,22.10
2018-10-17T15:03:21.879Z,22.10
2018-10-17T15:05:51.800Z,22.00
2018-10-17T15:08:21.928Z,22.00
2018-10-17T15:10:52.043Z,22.00
2018-10-17T15:13:21.406Z,22.00
2018-10-17T15:16:34.987Z,21.90
2018-10-17T15:19:04.021Z,21.90
2018-10-17T15:21:32.497Z,21.90
2018-10-17T15:24:01.126Z,21.90
2018-10-17T15:26:29.423Z,21.80
2018-10-17T15:28:57.686Z,21.80
2018-10-17T15:31:26.522Z,21.80
2018-10-17T15:33:55.120Z,21.80
2018-10-17T15:36:23.441Z,21.70
2018-10-17T15:38:51.702Z,21.70
2018-10-17T15:41:20.016Z,21.70
2018-10-17T15:43:48.364Z,21.70
2018-10-17T15:46:16.655Z,21.60
2018-10-17T15:48:45.438Z,21.60
2018-10-17T15:51:14.489Z,21.60
2018-10-17T15:53:42.860Z,21.50
2018-10-17T15:56:11.236Z,21.50
2018-10-17T15:58:39.568Z,21.50
2018-10-17T16:01:07.928Z,21.50
2018-10-17T16:03:36.205Z,21.50
2018-10-17T16:06:04.756Z,21.50
2018-10-17T16:08:33.143Z,21.50
2018-10-17T16:11:01.451Z,21.40
2018-10-17T16:13:29.735Z,21.40
2018-10-17T16:16:45.756Z,21.40
2018-10-17T16:19:14.247Z,21.40
2018-10-17T16:21:43.015Z,21.40
2018-10-17T16:24:11.687Z,21.40
2018-10-17T16:26:40.015Z,21.40
2018-10-17T16:29:08.331Z,21.30
2018-10-17T16:31:37.016Z,21.30
2018-10-17T16:34:05.419Z,21.30
2018-10-17T16:36:33.699Z,21.30
2018-10-17T16:39:02.089Z,21.30
2018-10-17T16:41:34.727Z,21.20
2018-10-17T16:44:03.164Z,21.20
2018-10-17T16:46:31.483Z,21.20
2018-10-17T16:48:59.831Z,21.30
2018-10-17T16:51:28.162Z,21.20
2018-10-17T16:53:56.457Z,21.20
2018-10-17T16:56:24.745Z,21.20
2018-10-17T16:58:53.040Z,21.20
2018-10-17T17:01:21.456Z,21.20
2018-10-17T17:03:49.782Z,21.20
2018-10-17T17:06:18.139Z,21.20
2018-10-17T17:08:46.419Z,21.20
2018-10-17T17:11:28.780Z,21.20
2018-10-17T17:13:57.067Z,21.10
2018-10-17T17:17:07.846Z,21.10
2018-10-17T17:19:36.189Z,21.20
2018-10-17T17:22:04.526Z,21.20
2018-10-17T17:24:33.231Z,21.10
2018-10-17T17:27:01.930Z,21.10
2018-10-17T17:29:32.040Z,21.20
2018-10-17T17:32:00.324Z,21.20
2018-10-17T17:34:28.630Z,21.30
2018-10-17T17:36:56.903Z,21.30
2018-10-17T17:39:25.214Z,21.30
2018-10-17T17:41:53.676Z,21.30
2018-10-17T17:44:21.989Z,21.40
2018-10-17T17:46:50.255Z,21.40
2018-10-17T17:49:18.637Z,21.40
2018-10-17T17:51:46.919Z,21.40
2018-10-17T17:54:15.159Z,21.40
2018-10-17T17:56:43.491Z,21.40
2018-10-17T17:59:11.747Z,21.40
2018-10-17T18:01:40.131Z,21.40
2018-10-17T18:04:08.544Z,21.40
2018-10-17T18:06:36.876Z,21.40
2018-10-17T18:09:08.164Z,21.40
2018-10-17T18:11:36.506Z,21.30
2018-10-17T18:14:04.927Z,21.30
2018-10-17T18:16:59.808Z,21.30
2018-10-17T18:19:28.133Z,21.20
2018-10-17T18:21:56.567Z,21.20
2018-10-17T18:24:24.740Z,21.20
2018-10-17T18:26:53.179Z,21.20
2018-10-17T18:29:21.474Z,21.20
2018-10-17T18:31:49.767Z,21.10
2018-10-17T18:34:18.112Z,21.00
2018-10-17T18:36:46.400Z,21.00
2018-10-17T18:39:14.704Z,21.00
2018-10-17T18:41:43.434Z,20.90
2018-10-17T18:44:12.154Z,20.90
2018-10-17T18:46:40.939Z,20.80
2018-10-17T18:49:09.374Z,20.80
2018-10-17T18:51:37.905Z,20.90
2018-10-17T18:54:06.594Z,20.80
2018-10-17T18:56:34.898Z,20.80
2018-10-17T18:59:03.199Z,20.90
2018-10-17T19:01:31.634Z,20.80
2018-10-17T19:03:59.959Z,20.80
2018-10-17T19:06:28.207Z,20.80
2018-10-17T19:08:56.675Z,20.80
2018-10-17T19:11:24.946Z,20.80
2018-10-17T19:13:53.243Z,20.80
2018-10-17T19:17:07.939Z,20.70
2018-10-17T19:19:36.187Z,20.70
2018-10-17T19:22:04.989Z,20.70
2018-10-17T19:24:34.523Z,20.60
2018-10-17T19:27:02.894Z,20.60
2018-10-17T19:29:32.696Z,20.60
2018-10-17T19:32:01.064Z,20.60
2018-10-17T19:34:31.517Z,20.50
2018-10-17T19:36:59.837Z,20.50
2018-10-17T19:39:28.129Z,20.50
2018-10-17T19:41:56.432Z,20.50
2018-10-17T19:44:24.751Z,20.50
2018-10-17T19:46:53.033Z,20.40
2018-10-17T19:49:21.390Z,20.40
2018-10-17T19:51:49.672Z,20.40
2018-10-17T19:54:17.960Z,20.30
2018-10-17T19:56:46.245Z,20.40
2018-10-17T19:59:14.548Z,20.30
2018-10-17T20:01:42.835Z,20.30
2018-10-17T20:04:11.112Z,20.30
2018-10-17T20:06:39.355Z,20.30
2018-10-17T20:09:09.176Z,20.30
2018-10-17T20:11:37.431Z,20.30
2018-10-17T20:14:05.902Z,20.30
2018-10-17T20:20:14.084Z,20.20
2018-10-17T20:22:42.383Z,20.20
2018-10-17T20:25:10.692Z,20.20
2018-10-17T20:28:05.227Z,20.20
2018-10-17T20:30:33.588Z,20.20
2018-10-17T20:33:01.932Z,20.20
2018-10-17T20:35:30.628Z,20.10
2018-10-17T20:37:58.943Z,20.10
2018-10-17T20:40:27.439Z,20.10
2018-10-17T20:42:55.752Z,20.10
2018-10-17T20:45:24.816Z,20.10
2018-10-17T20:47:53.283Z,20.00
2018-10-17T20:50:21.860Z,20.00
2018-10-17T20:52:50.519Z,20.00
2018-10-17T20:55:18.808Z,20.00
2018-10-17T20:57:47.116Z,20.00
2018-10-17T21:00:15.391Z,20.00
2018-10-17T21:02:43.918Z,20.00
2018-10-17T21:05:12.592Z,20.10
2018-10-17T21:07:40.876Z,20.10
2018-10-17T21:10:09.169Z,20.00
2018-10-17T21:12:37.402Z,20.00
2018-10-17T21:18:45.912Z,20.00
2018-10-17T21:21:14.565Z,20.00
2018-10-17T21:23:42.991Z,20.00
2018-10-17T21:26:11.711Z,19.90
2018-10-17T21:28:40.364Z,19.90
2018-10-17T21:31:08.859Z,19.90
2018-10-17T21:33:37.160Z,19.90
2018-10-17T21:36:05.587Z,19.90
2018-10-17T21:38:33.867Z,19.90
2018-10-17T21:41:02.262Z,19.90
2018-10-17T21:43:31.050Z,19.80
2018-10-17T21:45:59.310Z,19.80
2018-10-17T21:48:27.828Z,19.80
2018-10-17T21:50:56.075Z,19.80
2018-10-17T21:53:24.415Z,19.80
2018-10-17T21:55:52.730Z,19.80
2018-10-17T21:58:21.113Z,19.80
2018-10-17T22:00:49.727Z,19.80
2018-10-17T22:03:19.292Z,19.80
2018-10-17T22:05:47.558Z,19.80
2018-10-17T22:08:15.903Z,19.70
2018-10-17T22:10:44.200Z,19.70
2018-10-17T22:13:12.884Z,19.70
2018-10-17T22:15:41.357Z,19.60
2018-10-17T22:18:10.189Z,19.60
2018-10-17T22:20:39.227Z,19.60
2018-10-17T22:23:07.519Z,19.50
2018-10-17T22:25:35.985Z,19.50
2018-10-17T22:28:05.592Z,19.50
2018-10-17T22:30:34.375Z,19.50
2018-10-17T22:33:02.676Z,19.50
2018-10-17T22:35:31.279Z,19.50
2018-10-17T22:38:00.058Z,19.50
2018-10-17T22:40:28.367Z,19.60
2018-10-17T22:42:56.725Z,19.60
2018-10-17T22:45:25.236Z,19.60
2018-10-17T22:47:54.160Z,19.60
2018-10-17T22:50:22.593Z,19.60
2018-10-17T22:52:50.836Z,19.60
2018-10-17T22:55:19.378Z,19.60
2018-10-17T22:57:48.151Z,19.60
2018-10-17T23:00:16.813Z,19.70
2018-10-17T23:02:45.117Z,19.70
2018-10-17T23:05:13.393Z,19.70
2018-10-17T23:07:42.144Z,19.70
2018-10-17T23:10:10.631Z,19.70
2018-10-17T23:12:39.471Z,19.70
2018-10-17T23:15:12.251Z,19.70
2018-10-17T23:17:41.003Z,19.70
2018-10-17T23:20:09.571Z,19.70
2018-10-17T23:22:38.406Z,19.70
2018-10-17T23:25:07.537Z,19.70
2018-10-17T23:27:36.361Z,19.70
2018-10-17T23:30:05.514Z,19.70
2018-10-17T23:32:33.778Z,19.70
2018-10-17T23:35:02.035Z,19.70
2018-10-17T23:37:30.688Z,19.70
2018-10-17T23:39:58.971Z,19.70
2018-10-17T23:42:27.582Z,19.70
2018-10-17T23:44:55.912Z,19.70
2018-10-17T23:47:24.254Z,19.70
2018-10-17T23:49:52.528Z,19.70
2018-10-17T23:52:20.859Z,19.70
2018-10-17T23:54:49.200Z,19.70
2018-10-17T23:57:17.794Z,19.70
2018-10-17T23:59:46.019Z,19.70
